Flight Track Log - Related Links

Times and Time Zones

All times are in EDT time to prevent confusion due to time zone crossing. See the EJM56 flight status page for this flight to view local times or setup timezone preferences in your user account.

Time Position Orientation Groundspeed Altitude Reporting Facility
EDT Latitude Longitude Course Direction KTS MPH feet Rate Location/Type
Wed 07:49:43 PM 35.2242 -97.4097 13° North 263 303 8,300  Level Kansas City Center
Wed 07:50:44 PM 35.3131 -97.3856 13° North 313 360 10,300 1,832 Climbing Kansas City Center
Wed 07:51:54 PM 35.4372 -97.3589 10° North 357 411 12,300 1,727 Climbing Fort Worth Center
Wed 07:52:56 PM 35.5461 -97.3333 11° North 367 422 14,100 1,597 Climbing Fort Worth Center
Wed 07:53:58 PM 35.6506 -97.3092 11° North 379 436 15,600 1,984 Climbing Fort Worth Center
Wed 07:55:00 PM 35.7556 -97.2856 10° North 385 443 18,200 2,565 Climbing Fort Worth Center
Wed 07:56:02 PM 35.8536 -97.2628 11° North 366 421 20,900 2,226 Climbing Fort Worth Center
Wed 07:57:04 PM 35.9567 -97.2386 11° North 370 426 22,800 1,839 Climbing Fort Worth Center
Wed 07:58:06 PM 36.0675 -97.2128 11° North 395 455 24,700 1,897 Climbing Fort Worth Center
Wed 07:59:01 PM 36.1781 -97.1867 11° North 401 461 26,500 1,810 Climbing Kansas City Center
Wed 08:00:02 PM 36.2911 -97.1600 11° North 408 470 28,200 1,680 Climbing Kansas City Center
Wed 08:01:06 PM 36.4061 -97.1328 11° North 416 479 30,000 1,824 Climbing Kansas City Center
Wed 08:02:07 PM 36.5208 -97.1050 11° North 418 481 32,000 1,967 Climbing Kansas City Center
Wed 08:03:08 PM 36.6411 -97.0769 11° North 419 482 34,000 1,344 Climbing Kansas City Center
Wed 08:04:12 PM 36.7597 -97.0478 11° North 426 490 34,800 968 Climbing Kansas City Center
Wed 08:05:12 PM 36.9083 -97.0158 10° North 444 511 36,000 581 Climbing Kansas City Center
Wed 08:06:16 PM 37.0364 -96.9831 12° North 455 524 36,000  Level Kansas City Center
Wed 08:07:17 PM 37.1722 -96.9511 11° North 471 542 36,000  Level Kansas City Center
Wed 08:08:18 PM 37.3003 -96.9186 11° North 479 551 36,000  Level Kansas City Center
Wed 08:09:22 PM 37.4264 -96.8917 10° North 471 542 36,000  Level Kansas City Center
Wed 08:10:24 PM 37.5506 -96.8611 11° North 462 532 36,000  Level Kansas City Center
Wed 08:11:25 PM 37.6997 -96.8258 11° North 458 527 36,000  Level Kansas City Center
Wed 08:12:29 PM 37.8242 -96.7958 11° North 457 526 36,000  Level Kansas City Center
Wed 08:13:30 PM 37.9539 -96.7647 11° North 472 543 36,000  Level Kansas City Center
Wed 08:14:31 PM 38.0825 -96.7350 10° North 472 543 36,000  Level Kansas City Center
Wed 08:15:35 PM 38.2044 -96.7036 11° North 453 521 36,000  Level Kansas City Center
Wed 08:16:36 PM 38.3517 -96.6692 10° North 452 520 36,000  Level Kansas City Center
Wed 08:17:37 PM 38.4656 -96.6417 11° North 454 522 36,000  Level Kansas City Center
Wed 08:18:40 PM 38.5925 -96.6111 11° North 461 531 36,000  Level Kansas City Center
Wed 08:19:41 PM 38.7250 -96.5769 11° North 452 520 36,000  Level Kansas City Center
Wed 08:20:45 PM 38.8478 -96.5492 10° North 451 519 36,000  Level Kansas City Center
Wed 08:21:46 PM 38.9936 -96.5131 11° North 451 519 36,000  Level Kansas City Center
Wed 08:22:47 PM 39.1108 -96.4814 12° North 452 520 36,000 -240 Level Kansas City Center
Wed 08:23:51 PM 39.2378 -96.4503 11° North 459 528 35,500 -912 Descending Kansas City Center
Wed 08:24:52 PM 39.3694 -96.4186 11° North 459 528 34,100 -1,328 Descending Kansas City Center
Wed 08:25:53 PM 39.4872 -96.3886 11° North 442 509 32,800 -1,344 Descending Kansas City Center
Wed 08:26:57 PM 39.6139 -96.3561 11° North 404 465 31,300 -1,500 Descending Kansas City Center
Wed 08:27:57 PM 39.7322 -96.3256 11° North 427 491 29,700 -1,636 Descending Kansas City Center
Wed 08:28:58 PM 39.8619 -96.2925 11° North 444 511 28,000 -816 Descending Kansas City Center
Wed 08:30:02 PM 39.9839 -96.2611 11° North 448 516 28,000 -823 Level Kansas City Center
Wed 08:31:02 PM 40.0981 -96.2342 10° North 435 501 26,300 -1,935 Descending Kansas City Center
Wed 08:32:06 PM 40.2064 -96.2050 12° North 413 475 24,000 -2,238 Descending Kansas City Center
Wed 08:33:08 PM 40.3150 -96.1908 North 391 450 21,600 -2,532 Descending Kansas City Center
Wed 08:33:55 PM 40.4192 -96.1592 13° North 416 479 19,400 -2,222 Descending Minneapolis Center
Wed 08:34:29 PM 40.4872 -96.1628 358° North 412 474 18,600 -2,182 Descending Minneapolis Center
Wed 08:34:50 PM 40.5267 -96.1419 22° Northeast 434 499 17,400 -2,419 Descending Minneapolis Center
Wed 08:35:31 PM 40.6050 -96.1442 359° North 429 494 16,100 -1,377 Descending Minneapolis Center
Wed 08:35:51 PM 40.6392 -96.1319 15° North 403 464 16,000 -97 Descending Minneapolis Center
Wed 08:36:33 PM 40.7144 -96.1322 360° North 406 467 16,000  Level Minneapolis Center
Wed 08:36:51 PM 40.7469 -96.1172 19° North 396 456 16,000 -1,065 Level Minneapolis Center
Wed 08:37:35 PM 40.8197 -96.1169 360° North 391 450 14,900 -1,967 Descending Minneapolis Center
Wed 08:37:52 PM 40.8550 -96.1053 14° North 349 402 14,000 -2,613 Descending Minneapolis Center
Wed 08:38:37 PM 40.9158 -96.1017 North 362 417 12,200 -2,800 Descending Minneapolis Center
Wed 08:38:52 PM 40.9525 -96.0942 North 353 406 11,200 -1,645 Descending Minneapolis Center
Wed 08:39:39 PM 41.0100 -96.0886 North 347 399 10,500 -1,574 Descending Minneapolis Center
Wed 08:39:53 PM 41.0417 -96.0814 10° North 300 345 9,600 -2,323 Descending Minneapolis Center
Wed 08:40:41 PM 41.0942 -96.0764 North 319 367 8,100 -2,557 Descending Minneapolis Center
Wed 08:40:54 PM 41.1250 -96.0775 358° North 303 349 7,000 -3,000 Descending Minneapolis Center
Wed 08:41:43 PM 41.1928 -96.0817 357° North 303 349 5,000 -2,455 Descending Minneapolis Center
Wed 08:42:00 PM 41.2156 -96.0867 351° North 295 339 4,300 -1,161 Descending Minneapolis Center
Wed 08:42:45 PM 41.2725 -96.0867 360° North 294 338 3,800 -787 Descending Minneapolis Center
Wed 08:43:01 PM 41.2892 -96.0922 346° North 264 304 3,500 -676 Descending Minneapolis Center
Wed 08:43:56 PM 41.3425 -96.0417 35° Northeast 248 285 3,000 -556 Descending Minneapolis Center
Wed 08:44:49 PM 41.3517 -95.9744 80° East 257 296 2,500 -730 Descending Minneapolis Center
Wed 08:45:51 PM 41.3328 -95.9186 114° Southeast 178 205 1,600 -726 Descending Minneapolis Center
Wed 08:46:53 PM 41.3058 -95.8936 145° Southeast 139 160 1,000 -581 Descending Minneapolis Center
Wed 08:48:00 PM 41.3000 -95.8833 North  Level FlightAware Approximate

Login

Don't have an account? Register now (free) for customized features, flight alerts, and more!